createdAt,value
2022-10-27T00:00:02.333Z,101070.59
2022-10-27T00:01:13.768Z,101062.13
2022-10-27T00:02:15.342Z,101064.09
2022-10-27T00:03:17.250Z,101062.38
2022-10-27T00:04:18.833Z,101065.22
2022-10-27T00:05:22.292Z,101059.03
2022-10-27T00:06:23.743Z,101065.22
2022-10-27T00:07:25.242Z,101067.50
2022-10-27T00:08:26.728Z,101066.94
2022-10-27T00:09:28.355Z,101069.75
2022-10-27T00:10:30.025Z,101076.53
2022-10-27T00:11:31.475Z,101083.28
2022-10-27T00:12:33.227Z,101080.47
2022-10-27T00:13:35.234Z,101078.50
2022-10-27T00:14:36.686Z,101084.44
2022-10-27T00:15:38.134Z,101086.09
2022-10-27T00:16:39.598Z,101086.09
2022-10-27T00:17:41.204Z,101078.50
2022-10-27T00:18:43.171Z,101074.84
2022-10-27T00:19:44.623Z,101075.13
2022-10-27T00:20:46.082Z,101077.94
2022-10-27T00:21:47.580Z,101077.09
2022-10-27T00:22:49.394Z,101068.66
2022-10-27T00:23:51.191Z,101075.97
2022-10-27T00:24:52.619Z,101077.09
2022-10-27T00:25:54.587Z,101079.94
2022-10-27T00:26:56.026Z,101079.09
2022-10-27T00:27:58.414Z,101075.44
2022-10-27T00:28:59.899Z,101073.75
2022-10-27T00:30:01.374Z,101082.19
2022-10-27T00:31:06.486Z,101083.31
2022-10-27T00:32:07.942Z,101083.31
2022-10-27T00:33:09.383Z,101085.00
2022-10-27T00:34:11.182Z,101087.81
2022-10-27T00:35:13.031Z,101086.69
2022-10-27T00:36:18.354Z,101082.19
2022-10-27T00:37:20.163Z,101077.69
2022-10-27T00:38:22.081Z,101075.72
2022-10-27T00:39:23.535Z,101085.28
2022-10-27T00:40:25.027Z,101075.16
2022-10-27T00:41:29.524Z,101078.25
2022-10-27T00:42:30.950Z,101078.25
2022-10-27T00:43:36.359Z,101080.53
2022-10-27T00:44:38.550Z,101077.72
2022-10-27T00:45:39.999Z,101080.53
2022-10-27T00:46:41.794Z,101080.53
2022-10-27T00:47:43.246Z,101074.06
2022-10-27T00:48:44.718Z,101066.72
2022-10-27T00:49:48.283Z,101080.53
2022-10-27T00:50:49.786Z,101086.16
2022-10-27T00:51:55.184Z,101083.59
2022-10-27T00:52:57.542Z,101082.75
2022-10-27T00:53:59.034Z,101084.47
2022-10-27T00:55:29.875Z,101078.25
2022-10-27T00:56:31.361Z,101080.22
2022-10-27T00:57:32.807Z,101079.38
2022-10-27T00:58:34.278Z,101075.72
2022-10-27T00:59:36.261Z,101073.19
2022-10-27T01:00:38.997Z,101069.25
2022-10-27T01:01:40.635Z,101078.81
2022-10-27T01:02:42.404Z,101071.50
2022-10-27T01:03:44.061Z,101078.81
2022-10-27T01:04:59.156Z,101077.13
2022-10-27T01:06:00.631Z,101078.00
2022-10-27T01:07:02.087Z,101080.50
2022-10-27T01:08:04.459Z,101084.47
2022-10-27T01:09:06.094Z,101071.22
2022-10-27T01:10:07.617Z,101082.78
2022-10-27T01:11:09.096Z,101074.34
2022-10-27T01:12:10.652Z,101087.28
2022-10-27T01:13:12.118Z,101086.44
2022-10-27T01:14:13.616Z,101084.47
2022-10-27T01:15:15.211Z,101085.59
2022-10-27T01:16:16.664Z,101080.81
2022-10-27T01:17:18.088Z,101085.59
2022-10-27T01:18:37.895Z,101086.72
2022-10-27T01:19:39.352Z,101079.69
2022-10-27T01:20:46.961Z,101078.00
2022-10-27T01:21:54.613Z,101079.13
2022-10-27T01:22:56.053Z,101069.84
2022-10-27T01:24:09.359Z,101069.84
2022-10-27T01:25:33.599Z,101063.94
2022-10-27T01:26:41.149Z,101064.22
2022-10-27T01:27:46.155Z,101066.16
2022-10-27T01:29:06.114Z,101064.22
2022-10-27T01:30:10.407Z,101073.75
2022-10-27T01:31:13.099Z,101066.44
2022-10-27T01:32:26.342Z,101061.94
2022-10-27T01:33:51.122Z,101066.16
2022-10-27T01:35:02.444Z,101075.44
2022-10-27T01:36:05.636Z,101061.34
2022-10-27T01:37:09.785Z,101066.16
2022-10-27T01:38:26.916Z,101076.56
2022-10-27T01:39:32.366Z,101067.00
2022-10-27T01:40:38.095Z,101063.91
2022-10-27T01:41:51.944Z,101061.66
2022-10-27T01:43:00.032Z,101059.69
2022-10-27T01:44:05.803Z,101061.94
2022-10-27T01:45:08.134Z,101057.72
2022-10-27T01:46:09.693Z,101067.28
2022-10-27T01:47:11.368Z,101063.63
2022-10-27T01:48:12.811Z,101061.94
2022-10-27T01:49:14.278Z,101061.38
2022-10-27T01:50:18.879Z,101064.19
2022-10-27T01:51:20.363Z,101067.00
2022-10-27T01:52:40.738Z,101059.69
2022-10-27T01:53:44.359Z,101065.31
2022-10-27T01:54:45.791Z,101059.13
2022-10-27T01:56:05.595Z,101065.84
2022-10-27T01:57:11.342Z,101059.41
2022-10-27T01:58:21.786Z,101058.56
2022-10-27T01:59:32.462Z,101062.50
2022-10-27T02:00:35.370Z,101066.44
2022-10-27T02:01:36.956Z,101066.44
2022-10-27T02:02:42.069Z,101070.38
2022-10-27T02:03:49.214Z,101071.50
2022-10-27T02:04:54.149Z,101061.66
2022-10-27T02:06:02.820Z,101065.88
2022-10-27T02:07:07.130Z,101064.19
2022-10-27T02:08:26.134Z,101068.97
2022-10-27T02:09:39.786Z,101067.81
2022-10-27T02:10:44.380Z,101068.09
2022-10-27T02:11:46.073Z,101073.16
2022-10-27T02:12:47.819Z,101068.41
2022-10-27T02:13:49.533Z,101074.84
2022-10-27T02:14:51.479Z,101068.38
2022-10-27T02:15:53.884Z,101065.56
2022-10-27T02:16:55.382Z,101071.47
2022-10-27T02:17:58.194Z,101073.44
2022-10-27T02:19:01.436Z,101076.25
2022-10-27T02:20:03.383Z,101070.63
2022-10-27T02:21:05.918Z,101068.66
2022-10-27T02:22:07.448Z,101069.78
2022-10-27T02:23:09.119Z,101075.97
2022-10-27T02:24:10.560Z,101073.16
2022-10-27T02:25:12.051Z,101075.13
2022-10-27T02:26:20.447Z,101075.97
2022-10-27T02:27:27.926Z,101068.66
2022-10-27T02:28:47.967Z,101079.06
2022-10-27T02:29:49.455Z,101078.22
2022-10-27T02:30:50.961Z,101076.50
2022-10-27T02:31:53.267Z,101075.94
2022-10-27T02:32:54.844Z,101075.94
2022-10-27T02:33:57.267Z,101077.63
2022-10-27T02:34:59.028Z,101078.75
2022-10-27T02:36:00.835Z,101072.28
2022-10-27T02:37:03.116Z,101083.22
2022-10-27T02:38:04.554Z,101077.63
2022-10-27T02:39:06.013Z,101071.16
2022-10-27T02:40:07.918Z,101066.38
2022-10-27T02:41:09.405Z,101073.69
2022-10-27T02:42:10.880Z,101073.69
2022-10-27T02:43:12.327Z,101080.44
2022-10-27T02:44:13.810Z,101075.06
2022-10-27T02:45:15.288Z,101073.13
2022-10-27T02:46:16.802Z,101072.00
2022-10-27T02:47:18.258Z,101075.66
2022-10-27T02:48:19.735Z,101061.31
2022-10-27T02:49:21.256Z,101076.78
2022-10-27T02:50:22.905Z,101067.22
2022-10-27T02:51:24.413Z,101071.72
2022-10-27T02:52:25.915Z,101061.31
2022-10-27T02:53:27.514Z,101068.91
2022-10-27T02:54:29.019Z,101063.56
2022-10-27T02:55:30.479Z,101072.84
2022-10-27T02:56:31.913Z,101067.22
2022-10-27T02:57:33.568Z,101069.19
2022-10-27T02:58:35.424Z,101067.50
2022-10-27T02:59:36.918Z,101063.84
2022-10-27T03:00:38.440Z,101067.50
2022-10-27T03:01:40.153Z,101068.63
2022-10-27T03:02:41.699Z,101062.16
2022-10-27T03:03:43.135Z,101068.63
2022-10-27T03:04:44.609Z,101066.09
2022-10-27T03:05:48.263Z,101070.03
2022-10-27T03:06:50.534Z,101073.13
2022-10-27T03:07:52.012Z,101062.97
2022-10-27T03:08:53.467Z,101066.06
2022-10-27T03:09:54.975Z,101066.06
2022-10-27T03:10:56.448Z,101071.13
2022-10-27T03:11:57.912Z,101064.66
2022-10-27T03:12:59.354Z,101066.91
2022-10-27T03:14:00.863Z,101065.50
2022-10-27T03:15:02.298Z,101072.25
2022-10-27T03:16:03.844Z,101069.97
2022-10-27T03:17:05.342Z,101070.25
2022-10-27T03:18:06.819Z,101075.00
2022-10-27T03:19:08.261Z,101079.22
2022-10-27T03:20:09.907Z,101078.66
2022-10-27T03:21:11.389Z,101076.97
2022-10-27T03:22:12.871Z,101063.22
2022-10-27T03:23:14.435Z,101062.38
2022-10-27T03:24:15.937Z,101071.06
2022-10-27T03:25:17.434Z,101065.47
2022-10-27T03:26:18.909Z,101069.63
2022-10-27T03:27:20.373Z,101072.44
2022-10-27T03:28:21.832Z,101065.97
2022-10-27T03:29:23.627Z,101063.41
2022-10-27T03:30:25.145Z,101070.16
2022-10-27T03:31:26.631Z,101061.72
2022-10-27T03:32:28.094Z,101064.53
2022-10-27T03:33:29.599Z,101065.66
2022-10-27T03:34:31.026Z,101069.59
2022-10-27T03:35:32.511Z,101062.56
2022-10-27T03:36:35.276Z,101067.34
2022-10-27T03:37:36.764Z,101068.47
2022-10-27T03:38:38.244Z,101065.66
2022-10-27T03:40:46.097Z,101059.72
2022-10-27T03:41:47.615Z,101063.94
2022-10-27T03:42:49.215Z,101065.91
2022-10-27T03:43:50.858Z,101067.84
2022-10-27T03:44:52.308Z,101071.78
2022-10-27T03:45:57.202Z,101068.13
2022-10-27T03:47:01.628Z,101072.06
2022-10-27T03:48:03.728Z,101070.09
2022-10-27T03:49:05.272Z,101065.59
2022-10-27T03:50:06.890Z,101069.53
2022-10-27T03:51:08.360Z,101066.72
2022-10-27T03:52:09.863Z,101068.13
2022-10-27T03:53:11.359Z,101068.13
2022-10-27T03:54:12.866Z,101068.38
2022-10-27T03:55:14.366Z,101063.88
2022-10-27T03:56:15.858Z,101066.69
2022-10-27T03:57:17.312Z,101071.47
2022-10-27T03:58:18.839Z,101070.63
2022-10-27T03:59:20.351Z,101076.22
2022-10-27T04:00:21.907Z,101073.41
2022-10-27T04:01:23.592Z,101071.75
2022-10-27T04:02:25.273Z,101079.59
2022-10-27T04:03:26.732Z,101077.91
2022-10-27T04:04:28.183Z,101086.31
2022-10-27T04:05:29.618Z,101085.22
2022-10-27T04:06:31.391Z,101081.84
2022-10-27T04:07:32.864Z,101089.69
2022-10-27T04:08:34.363Z,101085.19
2022-10-27T04:09:35.858Z,101089.69
2022-10-27T04:10:37.303Z,101085.19
2022-10-27T04:11:38.742Z,101091.03
2022-10-27T04:12:47.327Z,101086.31
2022-10-27T04:13:48.863Z,101081.22
2022-10-27T04:14:51.037Z,101081.50
2022-10-27T04:15:52.476Z,101080.38
2022-10-27T04:16:53.953Z,101079.53
2022-10-27T04:17:56.072Z,101079.53
2022-10-27T04:18:57.597Z,101082.34
2022-10-27T04:19:59.074Z,101077.28
2022-10-27T04:21:01.503Z,101094.69
2022-10-27T04:22:02.971Z,101081.78
2022-10-27T04:23:04.410Z,101085.41
2022-10-27T04:24:06.047Z,101086.25
2022-10-27T04:25:07.672Z,101086.53
2022-10-27T04:26:09.231Z,101087.38
2022-10-27T04:28:12.079Z,101078.13
2022-10-27T04:29:13.548Z,101075.03
2022-10-27T04:30:15.006Z,101066.63
2022-10-27T04:31:16.478Z,101077.84
2022-10-27T04:32:18.015Z,101082.34
2022-10-27T04:33:19.520Z,101068.31
2022-10-27T04:34:21.066Z,101061.84
2022-10-27T04:35:22.541Z,101062.69
2022-10-27T04:36:24.012Z,101062.69
2022-10-27T04:37:26.466Z,101072.22
2022-10-27T04:38:28.023Z,101062.97
2022-10-27T04:39:29.459Z,101061.00
2022-10-27T04:40:31.023Z,101070.25
2022-10-27T04:41:32.487Z,101066.63
2022-10-27T04:42:34.316Z,101065.50
2022-10-27T04:43:35.823Z,101067.47
2022-10-27T04:44:37.260Z,101066.34
2022-10-27T04:45:38.704Z,101070.00
2022-10-27T04:46:40.190Z,101064.66
2022-10-27T04:47:41.652Z,101063.81
2022-10-27T04:48:43.103Z,101073.06
2022-10-27T04:49:44.752Z,101069.13
2022-10-27T04:50:46.226Z,101064.38
2022-10-27T04:51:47.748Z,101061.56
2022-10-27T04:52:55.825Z,101063.53
2022-10-27T04:53:57.365Z,101068.56
2022-10-27T04:54:58.893Z,101066.59
2022-10-27T04:56:00.458Z,101068.84
2022-10-27T04:57:01.899Z,101072.50
2022-10-27T04:58:06.883Z,101077.25
2022-10-27T04:59:11.128Z,101081.75
2022-10-27T05:00:12.772Z,101082.88
2022-10-27T05:01:14.333Z,101075.53
2022-10-27T05:02:15.813Z,101085.06
2022-10-27T05:03:17.294Z,101086.75
2022-10-27T05:04:18.730Z,101086.75
2022-10-27T05:05:20.202Z,101092.38
2022-10-27T05:06:21.662Z,101089.56
2022-10-27T05:07:23.106Z,101089.56
2022-10-27T05:08:24.570Z,101088.47
2022-10-27T05:09:26.065Z,101092.13
2022-10-27T05:10:27.720Z,101082.88
2022-10-27T05:11:29.280Z,101084.56
2022-10-27T05:12:30.835Z,101086.53
2022-10-27T05:13:32.319Z,101089.34
2022-10-27T05:14:33.791Z,101086.25
2022-10-27T05:15:35.275Z,101084.56
2022-10-27T05:16:36.771Z,101084.56
2022-10-27T05:17:38.358Z,101094.66
2022-10-27T05:18:39.798Z,101088.47
2022-10-27T05:19:41.332Z,101095.78
2022-10-27T05:20:42.820Z,101091.28
2022-10-27T05:21:44.308Z,101081.16
2022-10-27T05:22:45.823Z,101086.75
2022-10-27T05:23:47.930Z,101086.75
2022-10-27T05:24:49.411Z,101080.59
2022-10-27T05:25:51.552Z,101078.63
2022-10-27T05:26:53.059Z,101086.47
2022-10-27T05:27:54.857Z,101077.22
2022-10-27T05:28:56.644Z,101081.13
2022-10-27T05:29:58.231Z,101069.34
2022-10-27T05:30:59.777Z,101046.84
2022-10-27T05:32:01.243Z,101072.44
2022-10-27T05:33:02.847Z,101068.78
2022-10-27T05:34:04.405Z,101081.13
2022-10-27T05:35:05.997Z,101068.22
2022-10-27T05:36:07.756Z,101078.81
2022-10-27T05:37:09.330Z,101077.75
2022-10-27T05:38:10.807Z,101078.81
2022-10-27T05:39:12.254Z,101079.94
2022-10-27T05:40:13.865Z,101073.50
2022-10-27T05:41:15.411Z,101074.88
2022-10-27T05:42:16.944Z,101072.09
2022-10-27T05:43:18.420Z,101070.38
2022-10-27T05:44:19.903Z,101056.63
2022-10-27T05:45:21.862Z,101068.97
2022-10-27T05:46:23.304Z,101066.44
2022-10-27T05:47:24.787Z,101072.91
2022-10-27T05:48:26.316Z,101073.19
2022-10-27T05:49:27.807Z,101075.97
2022-10-27T05:50:29.359Z,101075.97
2022-10-27T05:51:31.128Z,101075.97
2022-10-27T05:52:32.595Z,101075.13
2022-10-27T05:53:34.274Z,101071.50
2022-10-27T05:54:35.731Z,101068.69
2022-10-27T05:55:37.174Z,101073.19
2022-10-27T05:56:38.756Z,101070.38
2022-10-27T05:57:40.215Z,101063.06
2022-10-27T05:58:41.664Z,101067.56
2022-10-27T05:59:43.148Z,101070.38
2022-10-27T06:00:44.615Z,101070.38
2022-10-27T06:01:46.142Z,101064.75
2022-10-27T06:02:47.717Z,101059.16
2022-10-27T06:03:49.206Z,101067.56
2022-10-27T06:04:50.696Z,101068.09
2022-10-27T06:05:52.219Z,101069.78
2022-10-27T06:06:53.671Z,101070.88
2022-10-27T06:07:55.403Z,101077.34
2022-10-27T06:08:56.933Z,101074.81
2022-10-27T06:09:58.472Z,101080.41
2022-10-27T06:10:59.978Z,101075.94
2022-10-27T06:12:01.432Z,101084.34
2022-10-27T06:13:05.923Z,101085.47
2022-10-27T06:14:07.410Z,101087.69
2022-10-27T06:15:09.031Z,101091.88
2022-10-27T06:16:12.963Z,101097.78
2022-10-27T06:17:14.708Z,101085.09
2022-10-27T06:18:16.182Z,101088.72
2022-10-27T06:19:17.655Z,101086.19
2022-10-27T06:20:19.120Z,101092.06
2022-10-27T06:21:20.847Z,101091.22
2022-10-27T06:22:22.291Z,101097.13
2022-10-27T06:23:23.851Z,101087.28
2022-10-27T06:24:25.347Z,101086.09
2022-10-27T06:25:26.791Z,101090.28
2022-10-27T06:26:28.243Z,101091.69
2022-10-27T06:27:30.475Z,101091.69
2022-10-27T06:28:31.951Z,101094.19
2022-10-27T06:29:33.403Z,101094.97
2022-10-27T06:30:34.959Z,101098.81
2022-10-27T06:31:38.113Z,101090.41
2022-10-27T06:32:40.664Z,101093.22
2022-10-27T06:33:42.384Z,101099.66
2022-10-27T06:34:43.822Z,101100.16
2022-10-27T06:35:46.347Z,101101.28
2022-10-27T06:36:47.818Z,101099.88
2022-10-27T06:37:49.331Z,101090.88
2022-10-27T06:38:51.038Z,101109.13
2022-10-27T06:39:55.751Z,101099.88
2022-10-27T06:40:57.246Z,101100.16
2022-10-27T06:41:58.776Z,101113.63
2022-10-27T06:43:08.506Z,101104.09
2022-10-27T06:44:10.285Z,101121.75
2022-10-27T06:45:11.901Z,101101.91
2022-10-27T06:46:13.353Z,101111.38
2022-10-27T06:47:14.870Z,101105.53
2022-10-27T06:48:16.436Z,101102.13
2022-10-27T06:49:18.034Z,101101.91
2022-10-27T06:50:19.495Z,101103.25
2022-10-27T06:51:21.046Z,101101.91
2022-10-27T06:52:22.566Z,101105.00
2022-10-27T06:53:24.015Z,101103.63
2022-10-27T06:54:25.505Z,101105.06
2022-10-27T06:55:27.171Z,101106.47
2022-10-27T06:56:28.748Z,101111.50
2022-10-27T06:57:30.798Z,101113.19
2022-10-27T06:58:35.162Z,101111.00
2022-10-27T06:59:36.676Z,101110.47
2022-10-27T07:00:38.339Z,101111.63
2022-10-27T07:01:39.961Z,101111.91
2022-10-27T07:02:41.526Z,101101.53
2022-10-27T07:03:43.081Z,101111.97
2022-10-27T07:04:44.783Z,101104.97
2022-10-27T07:05:46.235Z,101108.94
2022-10-27T07:06:47.683Z,101111.78
2022-10-27T07:07:52.886Z,101112.94
2022-10-27T07:09:56.944Z,101110.50
2022-10-27T07:10:58.401Z,101116.97
2022-10-27T07:11:59.894Z,101117.31
2022-10-27T07:13:01.716Z,101117.06
2022-10-27T07:14:03.386Z,101122.19
2022-10-27T07:15:04.956Z,101120.28
2022-10-27T07:16:06.732Z,101121.47
2022-10-27T07:17:08.229Z,101112.78
2022-10-27T07:18:10.209Z,101109.19
2022-10-27T07:19:11.683Z,101114.28
2022-10-27T07:20:13.129Z,101116.88
2022-10-27T07:21:15.078Z,101117.47
2022-10-27T07:22:16.569Z,101116.94
2022-10-27T07:23:18.055Z,101112.75
2022-10-27T07:24:19.612Z,101108.00
2022-10-27T07:25:21.188Z,101118.16
2022-10-27T07:26:22.654Z,101112.53
2022-10-27T07:27:24.152Z,101110.84
2022-10-27T07:28:25.599Z,101110.03
2022-10-27T07:29:27.085Z,101107.22
2022-10-27T07:30:29.632Z,101115.97
2022-10-27T07:31:31.085Z,101112.31
2022-10-27T07:32:32.533Z,101116.50
2022-10-27T07:33:34.041Z,101110.31
2022-10-27T07:34:35.518Z,101124.34
2022-10-27T07:35:37.094Z,101127.69
2022-10-27T07:36:38.611Z,101118.63
2022-10-27T07:37:43.982Z,101127.06
2022-10-27T07:38:45.507Z,101117.75
2022-10-27T07:39:47.143Z,101116.59
2022-10-27T07:40:48.701Z,101129.75
2022-10-27T07:41:50.270Z,101125.75
2022-10-27T07:42:52.874Z,101121.16
2022-10-27T07:43:54.696Z,101117.97
2022-10-27T07:44:56.226Z,101127.47
2022-10-27T07:45:57.741Z,101120.88
2022-10-27T07:46:59.282Z,101116.84
2022-10-27T07:48:00.751Z,101115.03
2022-10-27T07:49:02.222Z,101119.44
2022-10-27T07:50:03.897Z,101116.44
2022-10-27T07:51:05.408Z,101113.50
2022-10-27T07:52:06.931Z,101113.94
2022-10-27T07:53:08.367Z,101116.06
2022-10-27T07:54:09.914Z,101112.19
2022-10-27T07:55:14.458Z,101112.91
2022-10-27T07:56:17.624Z,101117.00
2022-10-27T07:57:19.076Z,101112.25
2022-10-27T07:58:20.640Z,101126.50
2022-10-27T07:59:22.140Z,101116.09
2022-10-27T08:00:23.645Z,101111.38
2022-10-27T08:01:25.398Z,101127.56
2022-10-27T08:02:27.001Z,101116.63
2022-10-27T08:03:31.909Z,101109.00
2022-10-27T08:04:33.580Z,101117.31
2022-10-27T08:05:35.364Z,101111.16
2022-10-27T08:06:36.859Z,101106.97
2022-10-27T08:07:38.855Z,101108.19
2022-10-27T08:08:40.387Z,101106.00
2022-10-27T08:09:43.565Z,101110.06
2022-10-27T08:10:45.838Z,101111.56
2022-10-27T08:11:47.350Z,101121.00
2022-10-27T08:12:48.786Z,101117.84
2022-10-27T08:13:50.337Z,101118.78
2022-10-27T08:14:55.646Z,101118.28
2022-10-27T08:15:59.269Z,101121.19
2022-10-27T08:17:04.132Z,101119.28
2022-10-27T08:18:06.645Z,101118.41
2022-10-27T08:19:08.090Z,101121.00
2022-10-27T08:20:09.985Z,101120.44
2022-10-27T08:21:11.592Z,101115.53
2022-10-27T08:22:13.984Z,101116.13
2022-10-27T08:23:20.315Z,101116.06
2022-10-27T08:24:21.742Z,101115.13
2022-10-27T08:25:23.348Z,101111.69
2022-10-27T08:26:24.879Z,101113.72
2022-10-27T08:27:26.423Z,101116.63
2022-10-27T08:28:27.955Z,101114.03
2022-10-27T08:29:29.481Z,101108.88
2022-10-27T08:30:33.801Z,101110.28
2022-10-27T08:31:35.979Z,101107.44
2022-10-27T08:32:37.444Z,101108.78
2022-10-27T08:33:38.894Z,101113.00
2022-10-27T08:34:40.356Z,101110.69
2022-10-27T08:35:41.992Z,101111.88
2022-10-27T08:36:43.509Z,101112.44
2022-10-27T08:37:44.954Z,101116.94
2022-10-27T08:38:46.568Z,101115.44
2022-10-27T08:39:48.020Z,101109.56
2022-10-27T08:40:49.597Z,101118.78
2022-10-27T08:41:54.225Z,101114.75
2022-10-27T08:42:55.650Z,101110.88
2022-10-27T08:44:05.336Z,101104.69
2022-10-27T08:45:10.659Z,101110.53
2022-10-27T08:46:16.708Z,101116.72
2022-10-27T08:47:24.214Z,101114.69
2022-10-27T08:48:25.918Z,101111.78
2022-10-27T08:49:28.419Z,101110.25
2022-10-27T08:50:31.925Z,101117.44
2022-10-27T08:51:33.657Z,101114.75
2022-10-27T08:52:44.058Z,101112.72
2022-10-27T08:53:46.468Z,101113.84
2022-10-27T08:54:54.945Z,101113.63
2022-10-27T08:55:57.882Z,101117.22
2022-10-27T08:56:59.962Z,101104.91
2022-10-27T08:58:13.041Z,101106.50
2022-10-27T08:59:15.286Z,101107.59
2022-10-27T09:00:17.038Z,101112.19
2022-10-27T09:01:21.866Z,101105.91
2022-10-27T09:02:50.066Z,101102.50
2022-10-27T09:04:07.239Z,101103.38
2022-10-27T09:05:17.296Z,101107.47
2022-10-27T09:06:21.712Z,101102.03
2022-10-27T09:07:35.897Z,101097.72
2022-10-27T09:08:55.935Z,101102.03
2022-10-27T09:10:12.449Z,101108.50
2022-10-27T09:11:20.772Z,101111.41
2022-10-27T09:12:25.074Z,101109.97
2022-10-27T09:13:29.626Z,101109.16
2022-10-27T09:14:41.875Z,101107.63
2022-10-27T09:15:46.863Z,101105.41
2022-10-27T09:16:50.009Z,101102.94
2022-10-27T09:18:10.903Z,101098.72
2022-10-27T09:19:14.095Z,101099.56
2022-10-27T09:20:27.875Z,101100.06
2022-10-27T09:21:29.334Z,101103.16
2022-10-27T09:22:31.079Z,101102.69
2022-10-27T09:23:36.365Z,101100.91
2022-10-27T09:24:37.879Z,101094.81
2022-10-27T09:25:40.032Z,101102.31
2022-10-27T09:26:42.293Z,101098.72
2022-10-27T09:27:43.968Z,101092.69
2022-10-27T09:28:48.757Z,101103.41
2022-10-27T09:29:50.528Z,101104.59
2022-10-27T09:30:52.250Z,101104.59
2022-10-27T09:32:02.911Z,101090.75
2022-10-27T09:33:15.234Z,101101.28
2022-10-27T09:34:22.359Z,101100.53
2022-10-27T09:35:24.673Z,101096.69
2022-10-27T09:36:26.214Z,101102.69
2022-10-27T09:37:28.006Z,101093.63
2022-10-27T09:38:29.566Z,101092.31
2022-10-27T09:39:31.051Z,101085.25
2022-10-27T09:40:32.675Z,101093.63
2022-10-27T09:41:34.223Z,101091.47
2022-10-27T09:42:35.673Z,101085.47
2022-10-27T09:43:37.164Z,101090.25
2022-10-27T09:44:38.683Z,101088.22
2022-10-27T09:45:42.946Z,101082.78
2022-10-27T09:46:44.419Z,101080.38
2022-10-27T09:47:46.880Z,101080.81
2022-10-27T09:48:48.336Z,101083.50
2022-10-27T09:49:49.844Z,101092.81
2022-10-27T09:51:06.650Z,101086.47
2022-10-27T09:52:12.539Z,101081.19
2022-10-27T09:53:32.851Z,101085.81
2022-10-27T09:54:35.127Z,101083.88
2022-10-27T09:55:49.795Z,101079.63
2022-10-27T09:56:51.275Z,101084.09
2022-10-27T09:57:53.206Z,101076.44
2022-10-27T09:59:00.140Z,101071.53
2022-10-27T10:00:02.504Z,101085.13
2022-10-27T10:01:12.427Z,101083.84
2022-10-27T10:02:23.417Z,101069.75
2022-10-27T10:03:25.054Z,101085.38
2022-10-27T10:04:27.700Z,101074.56
2022-10-27T10:05:30.840Z,101080.75
2022-10-27T10:06:36.205Z,101072.25
2022-10-27T10:07:38.643Z,101083.84
2022-10-27T10:08:40.344Z,101073.81
2022-10-27T10:09:42.016Z,101081.03
2022-10-27T10:11:09.661Z,101080.97
2022-10-27T10:12:24.402Z,101076.38
2022-10-27T10:13:26.778Z,101070.53
2022-10-27T10:14:28.280Z,101075.25
2022-10-27T10:15:30.548Z,101069.22
2022-10-27T10:16:33.310Z,101073.47
2022-10-27T10:17:34.840Z,101077.75
2022-10-27T10:18:36.513Z,101076.81
2022-10-27T10:19:37.958Z,101077.19
2022-10-27T10:21:48.703Z,101068.47
2022-10-27T10:22:50.150Z,101078.50
2022-10-27T10:23:52.105Z,101078.88
2022-10-27T10:24:54.062Z,101072.75
2022-10-27T10:25:56.757Z,101083.84
2022-10-27T10:26:58.522Z,101076.44
2022-10-27T10:28:03.469Z,101075.25
2022-10-27T10:29:05.761Z,101073.28
2022-10-27T10:30:07.672Z,101069.59
2022-10-27T10:31:10.107Z,101080.63
2022-10-27T10:32:15.434Z,101078.81
2022-10-27T10:33:16.882Z,101074.94
2022-10-27T10:34:36.664Z,101069.91
2022-10-27T10:35:47.863Z,101065.19
2022-10-27T10:36:50.394Z,101067.03
2022-10-27T10:37:52.158Z,101062.19
2022-10-27T10:38:56.500Z,101063.03
2022-10-27T10:40:18.919Z,101066.44
2022-10-27T10:41:21.778Z,101059.13
2022-10-27T10:42:23.541Z,101056.63
2022-10-27T10:43:25.401Z,101062.69
2022-10-27T10:44:26.944Z,101061.09
2022-10-27T10:45:30.434Z,101057.06
2022-10-27T10:46:31.958Z,101059.19
2022-10-27T10:47:33.487Z,101067.53
2022-10-27T10:48:38.881Z,101063.13
2022-10-27T10:49:41.394Z,101065.25
2022-10-27T10:50:44.969Z,101056.63
2022-10-27T10:51:49.746Z,101061.63
2022-10-27T10:52:52.922Z,101064.13
2022-10-27T10:53:58.059Z,101064.13
2022-10-27T10:55:03.677Z,101056.06
2022-10-27T10:56:06.312Z,101060.22
2022-10-27T10:57:21.159Z,101054.47
2022-10-27T10:58:23.093Z,101057.81
2022-10-27T10:59:26.457Z,101043.13
2022-10-27T11:00:28.131Z,101053.34
2022-10-27T11:01:45.908Z,101053.00
2022-10-27T11:03:10.095Z,101053.06
2022-10-27T11:04:15.707Z,101049.16
